Terminal Aerodrome Forecast
Issued by NWS

Home | Current Version | Previous Version | Text Only | Print | Product List | Glossary On
Versions: 1 2 3 4 5 6 7 8 9 10 11 12 13 14 15 16 17 18 19 20 21 22 23 24 25 26 27 28 29 30 31
000
FTUS41 KBOX 262006 AAA
TAFACK
TAF AMD
KACK 262006Z 2620/2718 19016KT 1/4SM -SHRA FG VV002 WS020/22060KT
     FM270000 19019G28KT 1/2SM -SHRA FG OVC003 WS020/22065KT
     FM270700 23013G24KT 3SM -SHRA OVC003
     FM270900 28012G23KT 3SM -SHRA OVC003
     FM271100 33011G21KT 3SM -SHRA OVC003
     FM271500 36011G20KT P6SM OVC010
     FM271700 01011G19KT P6SM OVC015=

USA.gov is the U.S. government's official web portal to all federal, state and local government web resources and services.